Time;durP1;ratioP1;P1;durP2;ratioP2;P2;SDS_P1;SDS_P2;PMS_P1;PMS_P2;Temp;Humidity;BMP_temperature;BMP_pressure;BME280_temperature;BME280_humidity;BME280_pressure;Samples;Min_cycle;Max_cycle;Signal;HPM_P1;HPM_P2
2022/03/29 00:02:08;;;;;;;;;;;20.30;38.50;;;;;;5051877;28;19927;-46
2022/03/29 00:04:37;;;;;;;;;;;20.30;38.40;;;;;;5066271;28;20317;-46
2022/03/29 00:07:03;;;;;;;;;;;20.30;38.40;;;;;;5066446;28;19931;-45
2022/03/29 00:09:30;;;;;;;;;;;20.30;38.40;;;;;;5063461;28;20006;-44
2022/03/29 00:11:57;;;;;;;;;;;20.30;38.50;;;;;;5060640;28;20401;-50
2022/03/29 00:14:23;;;;;;;;;;;20.30;38.40;;;;;;5063294;28;20340;-46
2022/03/29 00:16:50;;;;;;;;;;;20.30;38.40;;;;;;5064401;28;19921;-48
2022/03/29 00:19:17;;;;;;;;;;;20.30;38.40;;;;;;5057412;28;19920;-45
2022/03/29 00:21:45;;;;;;;;;;;20.30;38.40;;;;;;5063403;28;19952;-49
2022/03/29 00:24:12;;;;;;;;;;;20.30;38.40;;;;;;5062325;28;19924;-47
2022/03/29 00:26:38;;;;;;;;;;;20.30;38.40;;;;;;5059811;28;19992;-48
2022/03/29 00:29:05;;;;;;;;;;;20.30;38.40;;;;;;5067948;28;19924;-44
2022/03/29 00:31:32;;;;;;;;;;;20.30;38.40;;;;;;5064604;28;19921;-44
2022/03/29 00:33:59;;;;;;;;;;;20.30;38.40;;;;;;5093369;28;19921;-46
2022/03/29 00:36:27;;;;;;;;;;;20.30;38.40;;;;;;5054978;28;19938;-47
2022/03/29 00:38:55;;;;;;;;;;;20.30;38.40;;;;;;5055943;28;19964;-49
2022/03/29 00:41:24;;;;;;;;;;;20.30;38.50;;;;;;5061441;28;20392;-45
2022/03/29 00:43:50;;;;;;;;;;;20.30;38.50;;;;;;5064719;28;19956;-48
2022/03/29 00:46:18;;;;;;;;;;;20.30;38.40;;;;;;5066327;28;19920;-45
2022/03/29 00:48:44;;;;;;;;;;;20.30;38.40;;;;;;5065226;28;20285;-45
2022/03/29 00:51:11;;;;;;;;;;;20.30;38.50;;;;;;5066290;28;19925;-47
2022/03/29 00:53:38;;;;;;;;;;;20.30;38.50;;;;;;5063482;28;19938;-44
2022/03/29 00:56:06;;;;;;;;;;;20.30;38.50;;;;;;5068233;28;19921;-48
2022/03/29 00:58:34;;;;;;;;;;;20.30;38.50;;;;;;5063000;28;20322;-46
2022/03/29 01:01:01;;;;;;;;;;;20.30;38.40;;;;;;5060743;28;19921;-50
2022/03/29 01:03:28;;;;;;;;;;;20.30;38.50;;;;;;5065528;28;19924;-50
2022/03/29 01:05:55;;;;;;;;;;;20.30;38.50;;;;;;5067202;28;19967;-46
2022/03/29 01:08:22;;;;;;;;;;;20.30;38.50;;;;;;5063176;28;19933;-48
2022/03/29 01:10:48;;;;;;;;;;;20.30;38.50;;;;;;5060516;28;19927;-42
2022/03/29 01:13:17;;;;;;;;;;;20.30;38.40;;;;;;5055214;28;19928;-43
2022/03/29 01:15:43;;;;;;;;;;;20.30;38.50;;;;;;5060122;28;19932;-46
2022/03/29 01:18:09;;;;;;;;;;;20.30;38.40;;;;;;5091438;28;19921;-46
2022/03/29 01:20:37;;;;;;;;;;;20.30;38.40;;;;;;5059457;28;19932;-44
2022/03/29 01:23:05;;;;;;;;;;;20.30;38.50;;;;;;5065928;28;20276;-44
2022/03/29 01:25:34;;;;;;;;;;;20.30;38.50;;;;;;5066280;28;19920;-45
2022/03/29 01:28:01;;;;;;;;;;;20.30;38.40;;;;;;5062720;28;19981;-49
2022/03/29 01:30:27;;;;;;;;;;;20.30;38.50;;;;;;5062805;28;19951;-45
2022/03/29 01:32:54;;;;;;;;;;;20.30;38.50;;;;;;5065103;28;19927;-48
2022/03/29 01:35:21;;;;;;;;;;;20.30;38.50;;;;;;5091666;28;20259;-44
2022/03/29 01:37:50;;;;;;;;;;;20.30;38.50;;;;;;5062379;28;19925;-47
2022/03/29 01:40:23;;;;;;;;;;;20.30;38.40;;;;;;5094712;28;19924;-46
2022/03/29 01:42:50;;;;;;;;;;;20.30;38.50;;;;;;5089478;28;20286;-45
2022/03/29 01:45:17;;;;;;;;;;;20.30;38.40;;;;;;5066856;28;19924;-44
2022/03/29 01:47:44;;;;;;;;;;;20.30;38.40;;;;;;5056512;28;19928;-44
2022/03/29 01:50:11;;;;;;;;;;;20.30;38.40;;;;;;5059753;28;20301;-46
2022/03/29 01:52:39;;;;;;;;;;;20.30;38.40;;;;;;5065261;28;19920;-45
2022/03/29 01:55:06;;;;;;;;;;;20.30;38.40;;;;;;5060828;28;19921;-44
2022/03/29 01:57:34;;;;;;;;;;;20.30;38.40;;;;;;5064535;28;19963;-46
2022/03/29 02:02:46;;;;;;;;;;;20.30;38.40;;;;;;5063639;28;19947;-46
2022/03/29 02:05:13;;;;;;;;;;;20.30;38.50;;;;;;5061564;28;20016;-47
2022/03/29 02:07:40;;;;;;;;;;;20.30;38.40;;;;;;5093586;28;20316;-47
2022/03/29 02:10:10;;;;;;;;;;;20.30;38.40;;;;;;5063156;28;20255;-45
2022/03/29 02:12:38;;;;;;;;;;;20.30;38.40;;;;;;5065328;28;19939;-44
2022/03/29 02:15:05;;;;;;;;;;;20.30;38.40;;;;;;5048653;28;20015;-44
2022/03/29 02:17:32;;;;;;;;;;;20.30;38.40;;;;;;5059847;28;19931;-46
2022/03/29 02:19:58;;;;;;;;;;;20.30;38.40;;;;;;5063392;28;19921;-46
2022/03/29 02:22:26;;;;;;;;;;;20.30;38.40;;;;;;5060801;28;20063;-44
2022/03/29 02:24:56;;;;;;;;;;;20.30;38.40;;;;;;5056904;28;20014;-44
2022/03/29 02:27:23;;;;;;;;;;;20.30;38.40;;;;;;5063949;28;20023;-46
2022/03/29 02:29:51;;;;;;;;;;;20.30;38.40;;;;;;5056325;28;20115;-46
2022/03/29 02:32:18;;;;;;;;;;;20.30;38.40;;;;;;5055829;28;19928;-46
2022/03/29 02:34:45;;;;;;;;;;;20.30;38.40;;;;;;5087906;28;20424;-46
2022/03/29 02:37:14;;;;;;;;;;;20.30;38.40;;;;;;5061140;28;19921;-45
2022/03/29 02:39:42;;;;;;;;;;;20.30;38.40;;;;;;5057623;28;19956;-46
2022/03/29 02:42:09;;;;;;;;;;;20.30;38.40;;;;;;5055943;28;19926;-49
2022/03/29 02:44:36;;;;;;;;;;;20.30;38.40;;;;;;5061248;28;19921;-43
2022/03/29 02:47:04;;;;;;;;;;;20.30;38.40;;;;;;5063006;28;20127;-43
2022/03/29 02:49:31;;;;;;;;;;;20.30;38.40;;;;;;5061281;28;19928;-43
2022/03/29 02:52:01;;;;;;;;;;;20.30;38.40;;;;;;5064531;28;19931;-51
2022/03/29 02:54:28;;;;;;;;;;;20.30;38.40;;;;;;5058344;28;19928;-45
2022/03/29 02:57:07;;;;;;;;;;;20.30;38.40;;;;;;5060808;28;22622;-45
2022/03/29 02:59:33;;;;;;;;;;;20.30;38.40;;;;;;5056102;28;19971;-44
2022/03/29 03:02:00;;;;;;;;;;;20.30;38.40;;;;;;5054583;28;19954;-43
2022/03/29 03:04:28;;;;;;;;;;;20.30;38.40;;;;;;5059886;28;19931;-46
2022/03/29 03:06:55;;;;;;;;;;;20.30;38.40;;;;;;5064650;28;20420;-43
2022/03/29 03:09:22;;;;;;;;;;;20.30;38.40;;;;;;5061264;28;19927;-43
2022/03/29 03:11:49;;;;;;;;;;;20.30;38.40;;;;;;5065763;28;19924;-45
2022/03/29 03:14:16;;;;;;;;;;;20.30;38.40;;;;;;5061030;28;20019;-47
2022/03/29 03:16:43;;;;;;;;;;;20.30;38.40;;;;;;5063175;28;19967;-45
2022/03/29 03:19:11;;;;;;;;;;;20.30;38.40;;;;;;5061889;28;20309;-46
2022/03/29 03:21:39;;;;;;;;;;;20.30;38.40;;;;;;5058863;28;19932;-44
2022/03/29 03:24:06;;;;;;;;;;;20.30;38.40;;;;;;5061660;28;19971;-44
2022/03/29 03:26:36;;;;;;;;;;;20.30;38.40;;;;;;5061011;28;19955;-44
2022/03/29 03:29:02;;;;;;;;;;;20.30;38.40;;;;;;5064260;28;19920;-46
2022/03/29 03:31:29;;;;;;;;;;;20.30;38.40;;;;;;5090550;28;19990;-48
2022/03/29 03:33:56;;;;;;;;;;;20.30;38.40;;;;;;5058016;28;19924;-44
2022/03/29 03:36:23;;;;;;;;;;;20.30;38.40;;;;;;5060055;28;19924;-43
2022/03/29 03:38:51;;;;;;;;;;;20.30;38.40;;;;;;5054671;28;20344;-46
2022/03/29 03:41:18;;;;;;;;;;;20.30;38.40;;;;;;5052782;28;19921;-45
2022/03/29 03:43:45;;;;;;;;;;;20.30;38.40;;;;;;5062723;28;20380;-46
2022/03/29 03:46:11;;;;;;;;;;;20.30;38.40;;;;;;5062461;28;20034;-43
2022/03/29 03:48:38;;;;;;;;;;;20.30;38.40;;;;;;5063661;28;19920;-45
2022/03/29 03:51:05;;;;;;;;;;;20.30;38.40;;;;;;5053345;28;19982;-49
2022/03/29 03:53:32;;;;;;;;;;;20.30;38.40;;;;;;5066166;28;19960;-45
2022/03/29 03:56:00;;;;;;;;;;;20.30;38.40;;;;;;5086322;28;20321;-44
2022/03/29 03:58:26;;;;;;;;;;;20.30;38.40;;;;;;5091962;28;20270;-43
2022/03/29 04:00:58;;;;;;;;;;;20.30;38.30;;;;;;5070147;28;20337;-45
2022/03/29 04:03:25;;;;;;;;;;;20.30;38.30;;;;;;5063366;28;19920;-47
2022/03/29 04:05:52;;;;;;;;;;;20.30;38.30;;;;;;5061627;28;20289;-45
2022/03/29 04:08:19;;;;;;;;;;;20.30;38.30;;;;;;5052910;28;19929;-46
2022/03/29 04:10:46;;;;;;;;;;;20.30;38.30;;;;;;5058411;28;19937;-46
2022/03/29 04:13:15;;;;;;;;;;;20.30;38.30;;;;;;5058938;28;20266;-45
2022/03/29 04:15:44;;;;;;;;;;;20.30;38.30;;;;;;5063049;28;19947;-45
2022/03/29 04:18:11;;;;;;;;;;;20.30;38.30;;;;;;5062292;28;19966;-48
2022/03/29 04:20:38;;;;;;;;;;;20.30;38.30;;;;;;5065884;28;19925;-44
2022/03/29 04:23:07;;;;;;;;;;;20.30;38.30;;;;;;5061663;28;20475;-46
2022/03/29 04:25:34;;;;;;;;;;;20.30;38.30;;;;;;5059783;28;19978;-46
2022/03/29 04:28:00;;;;;;;;;;;20.30;38.30;;;;;;5092419;28;19955;-44
2022/03/29 04:30:28;;;;;;;;;;;20.30;38.30;;;;;;5065807;28;19924;-44
2022/03/29 04:32:55;;;;;;;;;;;20.30;38.30;;;;;;5081299;28;19932;-48
2022/03/29 04:35:22;;;;;;;;;;;20.30;38.30;;;;;;5067733;28;19983;-44
2022/03/29 04:37:49;;;;;;;;;;;20.30;38.30;;;;;;5067655;28;19959;-44
2022/03/29 04:40:16;;;;;;;;;;;20.30;38.30;;;;;;5068117;28;19964;-47
2022/03/29 04:42:44;;;;;;;;;;;20.30;38.30;;;;;;5065373;28;19978;-45
2022/03/29 04:45:11;;;;;;;;;;;20.30;38.30;;;;;;5065097;28;20358;-46
2022/03/29 04:47:40;;;;;;;;;;;20.30;38.30;;;;;;5064197;28;19931;-44
2022/03/29 04:50:09;;;;;;;;;;;20.30;38.30;;;;;;5052915;28;19927;-43
2022/03/29 04:52:36;;;;;;;;;;;20.30;38.30;;;;;;5057118;28;20388;-47
2022/03/29 04:55:04;;;;;;;;;;;20.30;38.20;;;;;;5064439;28;19932;-47
2022/03/29 04:57:31;;;;;;;;;;;20.30;38.20;;;;;;5066381;28;20169;-46
2022/03/29 05:00:01;;;;;;;;;;;20.30;38.20;;;;;;5066978;28;19942;-44
2022/03/29 05:02:27;;;;;;;;;;;20.30;38.20;;;;;;5058978;28;19933;-44
2022/03/29 05:04:56;;;;;;;;;;;20.30;38.20;;;;;;5066699;28;19973;-48
2022/03/29 05:07:23;;;;;;;;;;;20.30;38.20;;;;;;5063627;28;20281;-47
2022/03/29 05:09:50;;;;;;;;;;;20.30;38.20;;;;;;5065607;28;19920;-45
2022/03/29 05:12:17;;;;;;;;;;;20.30;38.10;;;;;;5062111;28;19920;-44
2022/03/29 05:14:44;;;;;;;;;;;20.30;38.20;;;;;;5062941;28;20281;-44
2022/03/29 05:17:11;;;;;;;;;;;20.30;38.20;;;;;;5052204;28;19928;-47
2022/03/29 05:19:37;;;;;;;;;;;20.30;38.20;;;;;;5058571;28;19970;-43
2022/03/29 05:22:05;;;;;;;;;;;20.30;38.10;;;;;;5058074;28;20008;-43
2022/03/29 05:24:32;;;;;;;;;;;20.30;38.10;;;;;;5055161;28;19928;-43
2022/03/29 05:27:05;;;;;;;;;;;20.30;38.10;;;;;;5065509;28;20027;-43
2022/03/29 05:29:32;;;;;;;;;;;20.30;38.10;;;;;;5066565;28;20364;-46
2022/03/29 05:32:00;;;;;;;;;;;20.30;38.10;;;;;;5061723;28;19969;-47
2022/03/29 05:34:27;;;;;;;;;;;20.30;38.10;;;;;;5063358;28;19927;-45
2022/03/29 05:36:53;;;;;;;;;;;20.30;38.10;;;;;;5066639;28;19920;-50
2022/03/29 05:39:21;;;;;;;;;;;20.30;38.10;;;;;;5066090;28;19955;-43
2022/03/29 05:41:48;;;;;;;;;;;20.30;38.10;;;;;;5062511;28;20386;-44
2022/03/29 05:44:15;;;;;;;;;;;20.30;38.10;;;;;;5063040;28;19924;-44
2022/03/29 05:49:27;;;;;;;;;;;20.30;38.10;;;;;;5054794;28;20010;-43
2022/03/29 05:51:54;;;;;;;;;;;20.30;38.00;;;;;;5060662;28;19933;-43
2022/03/29 05:54:22;;;;;;;;;;;20.30;38.00;;;;;;5063589;28;20293;-43
2022/03/29 05:56:49;;;;;;;;;;;20.30;38.00;;;;;;5061866;28;19927;-43
2022/03/29 05:59:16;;;;;;;;;;;20.30;38.00;;;;;;5065716;28;19927;-43
2022/03/29 06:01:42;;;;;;;;;;;20.30;38.00;;;;;;5089301;28;19929;-46
2022/03/29 06:04:09;;;;;;;;;;;20.30;38.00;;;;;;5060357;28;19921;-46
2022/03/29 06:06:36;;;;;;;;;;;20.30;38.00;;;;;;5061093;28;19966;-45
2022/03/29 06:09:03;;;;;;;;;;;20.30;38.00;;;;;;5061485;28;19956;-48
2022/03/29 06:11:31;;;;;;;;;;;20.30;38.00;;;;;;5061526;28;19926;-46
2022/03/29 06:13:58;;;;;;;;;;;20.30;38.00;;;;;;5061711;28;19936;-45
2022/03/29 06:16:25;;;;;;;;;;;20.30;38.00;;;;;;5059582;28;19970;-44
2022/03/29 06:18:52;;;;;;;;;;;20.30;38.00;;;;;;5057365;28;19970;-45
2022/03/29 06:21:19;;;;;;;;;;;20.30;38.00;;;;;;5057286;28;19921;-47
2022/03/29 06:23:45;;;;;;;;;;;20.30;38.00;;;;;;5058809;28;20916;-43
2022/03/29 06:26:12;;;;;;;;;;;20.30;38.00;;;;;;5058497;28;20024;-46
2022/03/29 06:28:40;;;;;;;;;;;20.30;38.00;;;;;;5061549;28;19925;-46
2022/03/29 06:31:08;;;;;;;;;;;20.30;38.00;;;;;;5089481;28;19968;-45
2022/03/29 06:33:35;;;;;;;;;;;20.30;38.00;;;;;;5062654;28;20442;-42
2022/03/29 06:36:02;;;;;;;;;;;20.30;38.00;;;;;;5063553;28;20003;-46
2022/03/29 06:38:31;;;;;;;;;;;20.30;38.00;;;;;;5066803;28;19924;-45
2022/03/29 06:40:59;;;;;;;;;;;20.30;38.00;;;;;;5060831;28;19931;-43
2022/03/29 06:43:25;;;;;;;;;;;20.30;38.00;;;;;;5054935;28;19921;-47
2022/03/29 06:45:53;;;;;;;;;;;20.30;38.00;;;;;;5092736;28;20007;-47
2022/03/29 06:48:20;;;;;;;;;;;20.30;38.00;;;;;;5056499;28;19932;-49
2022/03/29 06:50:47;;;;;;;;;;;20.30;38.00;;;;;;5059032;28;20143;-48
2022/03/29 06:53:14;;;;;;;;;;;20.30;38.00;;;;;;5062433;28;19924;-49
2022/03/29 06:55:41;;;;;;;;;;;20.30;38.00;;;;;;5062387;28;20366;-43
2022/03/29 06:58:07;;;;;;;;;;;20.30;38.00;;;;;;5056759;28;19986;-50
2022/03/29 07:00:35;;;;;;;;;;;20.30;38.00;;;;;;5063676;28;19970;-47
2022/03/29 07:03:05;;;;;;;;;;;20.30;38.00;;;;;;5057730;28;19936;-45
2022/03/29 07:05:31;;;;;;;;;;;20.30;38.00;;;;;;5061750;28;19932;-43
2022/03/29 07:07:58;;;;;;;;;;;20.30;38.00;;;;;;5060176;28;19950;-46
2022/03/29 07:13:09;;;;;;;;;;;20.30;37.80;;;;;;5052747;28;19995;-50
2022/03/29 07:15:36;;;;;;;;;;;20.30;37.80;;;;;;5094368;28;19970;-48
2022/03/29 07:18:05;;;;;;;;;;;20.30;37.80;;;;;;5058845;28;19935;-47
2022/03/29 07:20:33;;;;;;;;;;;20.30;37.70;;;;;;5060807;28;20338;-51
2022/03/29 07:23:00;;;;;;;;;;;20.30;37.50;;;;;;5052941;28;19920;-52
2022/03/29 07:25:31;;;;;;;;;;;20.30;37.40;;;;;;5065608;28;20012;-50
2022/03/29 07:27:59;;;;;;;;;;;20.30;37.20;;;;;;5061714;28;19925;-46
2022/03/29 07:30:25;;;;;;;;;;;20.30;37.10;;;;;;5085178;28;20428;-48
2022/03/29 07:32:52;;;;;;;;;;;20.30;37.10;;;;;;5060293;28;20731;-47
2022/03/29 07:35:21;;;;;;;;;;;20.30;36.90;;;;;;5058632;28;20278;-46
2022/03/29 07:37:48;;;;;;;;;;;20.30;36.90;;;;;;5093442;28;19955;-50
2022/03/29 07:40:15;;;;;;;;;;;20.20;36.90;;;;;;5062195;28;20023;-52
2022/03/29 07:42:42;;;;;;;;;;;20.20;36.80;;;;;;5060226;28;20056;-49
2022/03/29 07:45:10;;;;;;;;;;;20.20;36.70;;;;;;5065680;28;20022;-50
2022/03/29 07:47:37;;;;;;;;;;;20.20;36.70;;;;;;5057767;28;19921;-46
2022/03/29 07:50:07;;;;;;;;;;;20.20;36.60;;;;;;5059538;28;19982;-46
2022/03/29 07:52:37;;;;;;;;;;;20.20;36.60;;;;;;5066245;28;20044;-47
2022/03/29 07:55:04;;;;;;;;;;;20.20;36.60;;;;;;5086819;28;19935;-46
2022/03/29 07:57:31;;;;;;;;;;;20.20;37.00;;;;;;5061556;28;20334;-45
2022/03/29 07:59:57;;;;;;;;;;;20.20;36.50;;;;;;5069607;28;19966;-50
2022/03/29 08:02:24;;;;;;;;;;;20.20;37.00;;;;;;5066875;28;20015;-48
2022/03/29 08:04:51;;;;;;;;;;;20.20;36.40;;;;;;5055833;28;19927;-55
2022/03/29 08:07:18;;;;;;;;;;;20.20;36.40;;;;;;5059101;28;20258;-51
2022/03/29 08:09:46;;;;;;;;;;;20.20;36.40;;;;;;5063532;28;19920;-47
2022/03/29 08:12:12;;;;;;;;;;;20.20;36.30;;;;;;5066246;28;19920;-47
2022/03/29 08:14:39;;;;;;;;;;;20.20;36.30;;;;;;5062701;28;20384;-49
2022/03/29 08:17:08;;;;;;;;;;;20.20;36.30;;;;;;5061130;28;20011;-45
2022/03/29 08:19:38;;;;;;;;;;;20.20;36.30;;;;;;5052921;28;19921;-45
2022/03/29 08:22:05;;;;;;;;;;;20.10;36.20;;;;;;5064273;28;19920;-45
2022/03/29 08:24:31;;;;;;;;;;;20.20;36.20;;;;;;5061303;28;20288;-46
2022/03/29 08:26:59;;;;;;;;;;;20.10;36.10;;;;;;5056022;28;19979;-48
2022/03/29 08:29:26;;;;;;;;;;;20.10;36.10;;;;;;5054082;28;19924;-46
2022/03/29 08:31:53;;;;;;;;;;;20.10;36.00;;;;;;5059458;28;19966;-47
2022/03/29 08:34:20;;;;;;;;;;;20.10;36.00;;;;;;5056960;28;20440;-46
2022/03/29 08:36:49;;;;;;;;;;;20.10;36.10;;;;;;5051331;28;19966;-46
2022/03/29 08:39:16;;;;;;;;;;;20.10;36.00;;;;;;5059471;28;19947;-47
2022/03/29 08:41:45;;;;;;;;;;;20.10;36.00;;;;;;5055459;28;20008;-48
2022/03/29 08:44:13;;;;;;;;;;;20.10;36.00;;;;;;5053404;28;19965;-48
2022/03/29 08:46:42;;;;;;;;;;;20.10;36.00;;;;;;5059715;28;19924;-48
2022/03/29 08:49:09;;;;;;;;;;;20.10;35.90;;;;;;5059771;28;19982;-48
2022/03/29 08:51:36;;;;;;;;;;;20.10;35.90;;;;;;5083418;28;19921;-49
2022/03/29 08:54:02;;;;;;;;;;;20.10;35.80;;;;;;5058760;28;20261;-47
2022/03/29 08:56:29;;;;;;;;;;;20.10;35.80;;;;;;5062410;28;19936;-47
2022/03/29 08:58:56;;;;;;;;;;;20.10;35.80;;;;;;5060333;28;20353;-49
2022/03/29 09:01:24;;;;;;;;;;;20.10;35.70;;;;;;5058285;28;19982;-51
2022/03/29 09:04:05;;;;;;;;;;;20.10;35.70;;;;;;5055452;28;19924;-50
2022/03/29 09:06:31;;;;;;;;;;;20.10;35.70;;;;;;5064055;28;19924;-47
2022/03/29 09:08:58;;;;;;;;;;;20.10;35.80;;;;;;5055093;28;19921;-50
2022/03/29 09:11:25;;;;;;;;;;;20.10;35.60;;;;;;5060158;28;19963;-52
2022/03/29 09:14:02;;;;;;;;;;;20.10;34.80;;;;;;5056463;28;19925;-49
2022/03/29 09:16:30;;;;;;;;;;;20.00;34.70;;;;;;5055440;28;19920;-50
2022/03/29 09:18:58;;;;;;;;;;;20.00;34.80;;;;;;5060068;28;20384;-49
2022/03/29 09:21:25;;;;;;;;;;;20.00;34.90;;;;;;5072849;28;19943;-50
2022/03/29 09:24:05;;;;;;;;;;;20.00;35.00;;;;;;5067009;28;19920;-50
2022/03/29 09:26:32;;;;;;;;;;;20.00;35.10;;;;;;5058356;28;19920;-49
2022/03/29 09:28:59;;;;;;;;;;;20.00;35.10;;;;;;5064863;28;19981;-51
2022/03/29 09:31:27;;;;;;;;;;;20.00;35.10;;;;;;5061598;28;19968;-46
2022/03/29 09:33:59;;;;;;;;;;;20.00;35.20;;;;;;5065569;28;19920;-53
2022/03/29 09:36:27;;;;;;;;;;;20.00;35.20;;;;;;5064637;28;20007;-58
2022/03/29 09:38:56;;;;;;;;;;;20.00;35.50;;;;;;5068835;28;19928;-49
2022/03/29 09:41:26;;;;;;;;;;;20.00;35.30;;;;;;5065531;28;19924;-46
2022/03/29 09:43:59;;;;;;;;;;;20.00;35.30;;;;;;5053499;28;19986;-48
2022/03/29 09:46:26;;;;;;;;;;;20.00;35.30;;;;;;5086372;28;19921;-48
2022/03/29 09:48:54;;;;;;;;;;;20.00;35.30;;;;;;5087155;28;19985;-56
2022/03/29 09:51:26;;;;;;;;;;;20.00;35.30;;;;;;5081345;28;19928;-46
2022/03/29 09:53:54;;;;;;;;;;;20.00;35.30;;;;;;5068458;28;19920;-46
2022/03/29 09:56:24;;;;;;;;;;;20.00;35.20;;;;;;5086533;28;19921;-48
2022/03/29 09:59:07;;;;;;;;;;;20.00;35.20;;;;;;5070879;28;19960;-47
2022/03/29 10:01:34;;;;;;;;;;;20.00;35.20;;;;;;5064677;28;19920;-46
2022/03/29 10:04:01;;;;;;;;;;;20.00;35.10;;;;;;5068881;28;19994;-47
2022/03/29 10:06:30;;;;;;;;;;;20.00;35.10;;;;;;5060924;28;19921;-48
2022/03/29 10:11:42;;;;;;;;;;;20.00;35.00;;;;;;5057842;28;20009;-51
2022/03/29 10:14:12;;;;;;;;;;;20.00;34.80;;;;;;5057357;28;19942;-48
2022/03/29 10:16:39;;;;;;;;;;;19.90;33.60;;;;;;5048730;28;19920;-49
2022/03/29 10:19:07;;;;;;;;;;;19.90;32.60;;;;;;5088218;28;19948;-47
2022/03/29 10:21:35;;;;;;;;;;;19.90;32.70;;;;;;5062553;28;19928;-47
2022/03/29 10:24:02;;;;;;;;;;;19.80;32.70;;;;;;5066680;28;19967;-44
2022/03/29 10:26:29;;;;;;;;;;;19.80;33.20;;;;;;5064457;28;19920;-46
2022/03/29 10:28:56;;;;;;;;;;;19.80;33.50;;;;;;5061107;28;19970;-45
2022/03/29 10:31:30;;;;;;;;;;;19.80;34.40;;;;;;5055941;28;20289;-45
2022/03/29 10:34:13;;;;;;;;;;;19.80;34.00;;;;;;5087884;28;19927;-48
2022/03/29 10:37:10;;;;;;;;;;;19.90;34.30;;;;;;5056264;28;19966;-45
2022/03/29 10:39:45;;;;;;;;;;;19.90;34.10;;;;;;4951218;28;20307;-44
2022/03/29 10:42:24;;;;;;;;;;;19.90;34.40;;;;;;5045949;28;19927;-47
2022/03/29 10:44:58;;;;;;;;;;;19.90;34.50;;;;;;5062883;28;19951;-47
2022/03/29 10:47:28;;;;;;;;;;;19.90;34.60;;;;;;5064128;28;19921;-43
2022/03/29 10:49:55;;;;;;;;;;;19.90;34.80;;;;;;5058667;28;20345;-45
2022/03/29 10:52:28;;;;;;;;;;;20.00;34.90;;;;;;5049556;28;19921;-47
2022/03/29 10:55:10;;;;;;;;;;;20.00;35.00;;;;;;5055397;28;20322;-44
2022/03/29 10:57:38;;;;;;;;;;;20.00;35.00;;;;;;5084295;28;19924;-45
2022/03/29 11:00:22;;;;;;;;;;;20.10;35.10;;;;;;5060744;28;20269;-45
2022/03/29 11:03:03;;;;;;;;;;;20.10;35.20;;;;;;5081700;28;19925;-45
2022/03/29 11:05:30;;;;;;;;;;;20.10;35.20;;;;;;5057253;28;19920;-43
2022/03/29 11:08:10;;;;;;;;;;;20.10;35.30;;;;;;5052458;28;19931;-45
2022/03/29 11:10:40;;;;;;;;;;;20.10;35.30;;;;;;5047724;28;20433;-44
2022/03/29 11:13:22;;;;;;;;;;;20.10;35.40;;;;;;5052653;28;19920;-45
2022/03/29 11:15:50;;;;;;;;;;;20.10;35.50;;;;;;5053759;28;19921;-45
2022/03/29 11:18:47;;;;;;;;;;;20.20;35.60;;;;;;5048003;28;19927;-47
2022/03/29 11:21:36;;;;;;;;;;;20.20;35.60;;;;;;5060816;28;19920;-44
2022/03/29 11:24:04;;;;;;;;;;;20.20;35.70;;;;;;5054459;28;19920;-48
2022/03/29 11:26:30;;;;;;;;;;;20.20;35.80;;;;;;5090861;28;19921;-46
2022/03/29 11:28:58;;;;;;;;;;;20.20;35.80;;;;;;5066271;28;19921;-43
2022/03/29 11:31:32;;;;;;;;;;;20.20;35.80;;;;;;5070264;28;19927;-43
2022/03/29 11:33:59;;;;;;;;;;;20.30;36.00;;;;;;5066896;28;19920;-45
2022/03/29 11:36:26;;;;;;;;;;;20.30;36.00;;;;;;5062436;28;19939;-45
2022/03/29 11:38:53;;;;;;;;;;;20.30;36.10;;;;;;5065245;28;19920;-43
2022/03/29 11:41:20;;;;;;;;;;;20.30;36.10;;;;;;5064528;28;19920;-46
2022/03/29 11:43:51;;;;;;;;;;;20.30;36.10;;;;;;5064385;28;19928;-44
2022/03/29 11:46:18;;;;;;;;;;;20.30;36.20;;;;;;5063698;28;19928;-43
2022/03/29 11:48:50;;;;;;;;;;;20.30;36.30;;;;;;5091660;28;19928;-47
2022/03/29 11:51:17;;;;;;;;;;;20.30;36.30;;;;;;5060793;28;19970;-45
2022/03/29 11:53:44;;;;;;;;;;;20.40;36.40;;;;;;5089834;28;19928;-48
2022/03/29 11:56:13;;;;;;;;;;;20.40;36.50;;;;;;5061299;28;19956;-45
2022/03/29 11:58:40;;;;;;;;;;;20.40;36.50;;;;;;5059000;28;20311;-46
2022/03/29 12:01:08;;;;;;;;;;;20.40;36.60;;;;;;5088779;28;19927;-44
2022/03/29 12:03:35;;;;;;;;;;;20.40;36.60;;;;;;5062313;28;20003;-44
2022/03/29 12:06:04;;;;;;;;;;;20.40;36.70;;;;;;5062887;28;19921;-46
2022/03/29 12:08:44;;;;;;;;;;;20.40;36.70;;;;;;5089942;28;19963;-44
2022/03/29 12:11:11;;;;;;;;;;;20.40;36.70;;;;;;5060702;28;19931;-46
2022/03/29 12:13:38;;;;;;;;;;;20.40;36.70;;;;;;5058846;28;19921;-49
2022/03/29 12:16:17;;;;;;;;;;;20.40;36.70;;;;;;5058934;28;20463;-47
2022/03/29 12:18:45;;;;;;;;;;;20.40;36.70;;;;;;5095143;28;19977;-45
2022/03/29 12:21:14;;;;;;;;;;;20.40;37.40;;;;;;5069481;28;19920;-43
2022/03/29 12:23:41;;;;;;;;;;;20.50;36.90;;;;;;5062827;28;20809;-45
2022/03/29 12:26:08;;;;;;;;;;;20.50;36.90;;;;;;5064808;28;19920;-45
2022/03/29 12:28:35;;;;;;;;;;;20.50;36.90;;;;;;5061878;28;19933;-44
2022/03/29 12:31:02;;;;;;;;;;;20.50;36.90;;;;;;5064876;28;19987;-42
2022/03/29 12:33:29;;;;;;;;;;;20.50;37.00;;;;;;5066800;28;20163;-46
2022/03/29 12:36:02;;;;;;;;;;;20.50;37.00;;;;;;5068565;28;20361;-43
2022/03/29 12:38:38;;;;;;;;;;;20.50;37.00;;;;;;5081998;28;19921;-46
2022/03/29 12:41:05;;;;;;;;;;;20.50;37.00;;;;;;5060123;28;19920;-48
2022/03/29 12:43:33;;;;;;;;;;;20.50;37.00;;;;;;5069073;28;19921;-48
2022/03/29 12:46:00;;;;;;;;;;;20.50;37.10;;;;;;5061882;28;19955;-48
2022/03/29 12:48:28;;;;;;;;;;;20.50;37.00;;;;;;5062880;28;20204;-45
2022/03/29 12:50:55;;;;;;;;;;;20.50;37.10;;;;;;5075080;28;19921;-46
2022/03/29 12:53:23;;;;;;;;;;;20.60;37.20;;;;;;5061919;28;19936;-43
2022/03/29 12:56:09;;;;;;;;;;;20.60;37.20;;;;;;5069523;28;19974;-44
2022/03/29 12:58:39;;;;;;;;;;;20.60;37.30;;;;;;5066568;28;20233;-43
2022/03/29 13:01:07;;;;;;;;;;;20.60;37.30;;;;;;5055944;28;19940;-44
2022/03/29 13:03:37;;;;;;;;;;;20.60;37.30;;;;;;5062388;28;19970;-44
2022/03/29 13:06:04;;;;;;;;;;;20.60;37.30;;;;;;5090792;28;20316;-47
2022/03/29 13:08:32;;;;;;;;;;;20.60;37.40;;;;;;5068307;28;19921;-45
2022/03/29 13:10:59;;;;;;;;;;;20.60;37.30;;;;;;5070800;28;19921;-50
2022/03/29 13:13:29;;;;;;;;;;;20.60;37.40;;;;;;5061477;28;19929;-43
2022/03/29 13:15:59;;;;;;;;;;;20.60;37.40;;;;;;5063090;28;20239;-50
2022/03/29 13:18:29;;;;;;;;;;;20.60;37.40;;;;;;5075023;28;19946;-47
2022/03/29 13:21:07;;;;;;;;;;;20.60;37.40;;;;;;5065999;28;19921;-45
2022/03/29 13:23:34;;;;;;;;;;;20.60;38.10;;;;;;5069794;28;19921;-44
2022/03/29 13:26:02;;;;;;;;;;;20.60;37.50;;;;;;5065210;28;19977;-48
2022/03/29 13:28:32;;;;;;;;;;;20.70;37.50;;;;;;5050617;28;19986;-47
2022/03/29 13:31:03;;;;;;;;;;;20.60;37.50;;;;;;5059212;28;19975;-48
2022/03/29 13:33:29;;;;;;;;;;;20.60;37.50;;;;;;5055007;28;19921;-50
2022/03/29 13:35:56;;;;;;;;;;;20.60;37.50;;;;;;5052614;28;19928;-51
2022/03/29 13:38:23;;;;;;;;;;;20.60;37.30;;;;;;5057330;28;19924;-48
2022/03/29 13:40:50;;;;;;;;;;;20.60;37.20;;;;;;5053004;28;19921;-50
2022/03/29 13:43:17;;;;;;;;;;;20.60;37.20;;;;;;5057228;28;20216;-49
2022/03/29 13:45:45;;;;;;;;;;;20.60;37.00;;;;;;5051419;28;20360;-48
2022/03/29 13:48:13;;;;;;;;;;;20.60;36.90;;;;;;5060093;28;20195;-48
2022/03/29 13:50:40;;;;;;;;;;;20.50;36.70;;;;;;5057070;28;19928;-47
2022/03/29 13:53:07;;;;;;;;;;;20.50;36.60;;;;;;5051316;28;19928;-50
2022/03/29 13:55:34;;;;;;;;;;;20.50;36.60;;;;;;5061825;28;20114;-48
2022/03/29 13:58:04;;;;;;;;;;;20.50;36.50;;;;;;5058069;28;19927;-48
2022/03/29 14:00:31;;;;;;;;;;;20.50;36.40;;;;;;5052928;28;19921;-53
2022/03/29 14:02:58;;;;;;;;;;;20.50;36.40;;;;;;5056557;28;19927;-48
2022/03/29 14:05:28;;;;;;;;;;;20.40;36.20;;;;;;5052453;28;19921;-48
2022/03/29 14:07:55;;;;;;;;;;;20.40;36.20;;;;;;5046914;28;20350;-49
2022/03/29 14:10:22;;;;;;;;;;;20.40;36.10;;;;;;5090243;27;20023;-47
2022/03/29 14:12:49;;;;;;;;;;;20.40;36.10;;;;;;5050679;28;20011;-47
2022/03/29 14:15:16;;;;;;;;;;;20.40;36.10;;;;;;5050379;28;20357;-46
2022/03/29 14:17:42;;;;;;;;;;;20.40;36.10;;;;;;5052360;28;19960;-46
2022/03/29 14:20:10;;;;;;;;;;;20.40;36.00;;;;;;5061515;28;19921;-45
2022/03/29 14:22:38;;;;;;;;;;;20.40;35.90;;;;;;5062882;28;19986;-46
2022/03/29 14:25:08;;;;;;;;;;;20.40;35.80;;;;;;5052955;28;19990;-46
2022/03/29 14:27:35;;;;;;;;;;;20.40;35.70;;;;;;5055161;28;20358;-48
2022/03/29 14:30:15;;;;;;;;;;;20.40;35.70;;;;;;5058154;28;20419;-48
2022/03/29 14:32:42;;;;;;;;;;;20.40;35.60;;;;;;5069856;28;19924;-57
2022/03/29 14:35:09;;;;;;;;;;;20.40;35.90;;;;;;5048841;28;20025;-50